ASN logo
Last updated: 22 January 2022
Statuts:Préliminaire
Date:jeudi 26 novembre 2020
Heure:13:31
Type/Sous-type:Silhouette image of generic AT43 model; specific model in this crash may look slightly different
ATR 42-300
Compagnie:Calm Air International
Immatriculation: C-FAFS
Numéro de série: 298
Année de Fabrication: 1993-06-08 (27 years 6 months)
Moteurs: 2 Pratt & Whitney Canada PW120
Equipage:victimes: 0 / à bord: 3
Passagers:victimes: 0 / à bord: 0
Total:victimes: 0 / à bord: 3
Dégats de l'appareil: Substantiels
Lieu de l'accident:Naujaat Airport, NU (YUT) (   Canada)
Phase de vol: A l'atterrissage (LDG)
Nature:Cargo
Aéroport de départ:Rankin Inlet-Sherbrooke Airport, NU (YRT/CYRT), Canada
Aéroport de destination:Naujaat Airport, NU (YUT/CYUT), Canada
Numéro de vol:MO464
Détails:
A Calm Air ATR 42-300, C-FAFS, suffered a runway excursion while landing at Naujaat, NU (CYUT).
During the landing on runway 34, directional control was lost and the aircraft experienced a runway side excursion on the east side of the runway. The aircraft came to rest approximately 44 meters from the runway edge. The captain suffered serious injuries. The aircraft sustained substantial damage.

Accident investigation:
Investigating agency: TSB Canada
Status: Investigation ongoing
Accident number: A20C0107

Sources:
» TC Cadors 2020C4142

METAR Weather report:
19:00 UTC / 13:00 local time:
CYUT 261900Z 02010KT 15SM FEW150 BKN230 M23/M27 A2965 RMK AC2CI4 SLP047

19:34 UTC / 13:34 local time:
CYUT 261934Z 02006KT 15SM SCT150 BKN240 M23/M26 A2965 RMK AC3CI3 SLP047


Photos

Add your photo of this accident or aircraft

Video, social media

Plan
Ce plan montre l'aéroport de départ ainsi que la supposée destination du vol. La ligne fixe reliant les deux aéroports n'est pas le plan de vol exact.
La distance entre Rankin Inlet-Sherbrooke Airport, NU et Naujaat Airport, NU est de 494 km (309 miles).

Les informations ci-dessus ne représentent pas l'opinion de la 'Flight Safety Foundation' ou de 'Aviation Safety Network' sur les causes de l'accident. Ces informations prélimimaires sont basées sur les faits tel qu'ils sont connus à ce jour.
languages: languages

Share